sensor_id;sensor_type;location;lat;lon;timestamp;temperature;humidity
59025;DHT22;44806;48.008;13.666;2023-01-24T00:02:21;2.40;99.90
59025;DHT22;44806;48.008;13.666;2023-01-24T00:04:55;2.40;99.90
59025;DHT22;44806;48.008;13.666;2023-01-24T00:07:27;2.40;99.90
59025;DHT22;44806;48.008;13.666;2023-01-24T00:10:06;2.40;99.90
59025;DHT22;44806;48.008;13.666;2023-01-24T00:12:48;2.50;99.90
59025;DHT22;44806;48.008;13.666;2023-01-24T00:15:24;2.50;99.90
59025;DHT22;44806;48.008;13.666;2023-01-24T00:17:58;2.50;99.90
59025;DHT22;44806;48.008;13.666;2023-01-24T00:20:34;2.50;99.90
59025;DHT22;44806;48.008;13.666;2023-01-24T00:23:04;2.50;99.90
59025;DHT22;44806;48.008;13.666;2023-01-24T00:25:35;2.50;99.90
59025;DHT22;44806;48.008;13.666;2023-01-24T00:28:04;2.60;99.90
59025;DHT22;44806;48.008;13.666;2023-01-24T00:30:35;2.50;99.90
59025;DHT22;44806;48.008;13.666;2023-01-24T00:33:19;2.50;99.90
59025;DHT22;44806;48.008;13.666;2023-01-24T00:35:54;2.50;99.90
59025;DHT22;44806;48.008;13.666;2023-01-24T00:38:33;2.50;99.90
59025;DHT22;44806;48.008;13.666;2023-01-24T00:41:09;2.50;99.90
59025;DHT22;44806;48.008;13.666;2023-01-24T00:43:47;2.50;99.90
59025;DHT22;44806;48.008;13.666;2023-01-24T00:46:25;2.60;99.90
59025;DHT22;44806;48.008;13.666;2023-01-24T00:48:55;2.60;99.90
59025;DHT22;44806;48.008;13.666;2023-01-24T00:51:35;2.60;99.90
59025;DHT22;44806;48.008;13.666;2023-01-24T00:54:06;2.50;99.90
59025;DHT22;44806;48.008;13.666;2023-01-24T00:56:41;2.60;99.90
59025;DHT22;44806;48.008;13.666;2023-01-24T00:59:10;2.60;99.90
59025;DHT22;44806;48.008;13.666;2023-01-24T01:01:48;2.50;99.90
59025;DHT22;44806;48.008;13.666;2023-01-24T01:04:23;2.50;99.90
59025;DHT22;44806;48.008;13.666;2023-01-24T01:06:55;2.50;99.90
59025;DHT22;44806;48.008;13.666;2023-01-24T01:09:28;2.40;99.90
59025;DHT22;44806;48.008;13.666;2023-01-24T01:11:59;2.40;99.90
59025;DHT22;44806;48.008;13.666;2023-01-24T01:14:33;2.40;99.90
59025;DHT22;44806;48.008;13.666;2023-01-24T01:17:05;2.40;99.90
59025;DHT22;44806;48.008;13.666;2023-01-24T01:19:43;2.40;99.90
59025;DHT22;44806;48.008;13.666;2023-01-24T01:22:24;2.40;99.90
59025;DHT22;44806;48.008;13.666;2023-01-24T01:24:57;2.40;99.90
59025;DHT22;44806;48.008;13.666;2023-01-24T01:27:34;2.40;99.90
59025;DHT22;44806;48.008;13.666;2023-01-24T01:30:06;2.40;99.90
59025;DHT22;44806;48.008;13.666;2023-01-24T01:32:42;2.40;99.90
59025;DHT22;44806;48.008;13.666;2023-01-24T01:35:24;2.40;99.90
59025;DHT22;44806;48.008;13.666;2023-01-24T01:37:57;2.40;99.90
59025;DHT22;44806;48.008;13.666;2023-01-24T01:40:33;2.40;99.90
59025;DHT22;44806;48.008;13.666;2023-01-24T01:43:03;2.40;99.90
59025;DHT22;44806;48.008;13.666;2023-01-24T01:45:42;2.40;99.90
59025;DHT22;44806;48.008;13.666;2023-01-24T01:48:29;2.40;99.90
59025;DHT22;44806;48.008;13.666;2023-01-24T01:51:02;2.40;99.90
59025;DHT22;44806;48.008;13.666;2023-01-24T01:53:51;2.40;99.90
59025;DHT22;44806;48.008;13.666;2023-01-24T01:56:28;2.40;99.90
59025;DHT22;44806;48.008;13.666;2023-01-24T01:59:06;2.40;99.90
59025;DHT22;44806;48.008;13.666;2023-01-24T02:01:36;2.40;99.90
59025;DHT22;44806;48.008;13.666;2023-01-24T02:04:14;2.50;99.90
59025;DHT22;44806;48.008;13.666;2023-01-24T02:06:58;2.50;99.90
59025;DHT22;44806;48.008;13.666;2023-01-24T02:09:36;2.40;99.90
59025;DHT22;44806;48.008;13.666;2023-01-24T02:12:19;2.40;99.90
59025;DHT22;44806;48.008;13.666;2023-01-24T02:14:54;2.40;99.90
59025;DHT22;44806;48.008;13.666;2023-01-24T02:17:41;2.40;99.90
59025;DHT22;44806;48.008;13.666;2023-01-24T02:20:31;2.40;99.90
59025;DHT22;44806;48.008;13.666;2023-01-24T02:23:12;2.40;99.90
59025;DHT22;44806;48.008;13.666;2023-01-24T02:25:50;2.40;99.90
59025;DHT22;44806;48.008;13.666;2023-01-24T02:28:23;2.40;99.90
59025;DHT22;44806;48.008;13.666;2023-01-24T02:30:58;2.40;99.90
59025;DHT22;44806;48.008;13.666;2023-01-24T02:33:34;2.50;99.90
59025;DHT22;44806;48.008;13.666;2023-01-24T02:36:24;2.50;99.90
59025;DHT22;44806;48.008;13.666;2023-01-24T02:38:59;2.50;99.90
59025;DHT22;44806;48.008;13.666;2023-01-24T02:41:42;2.50;99.90
59025;DHT22;44806;48.008;13.666;2023-01-24T02:44:21;2.50;99.90
59025;DHT22;44806;48.008;13.666;2023-01-24T02:46:55;2.50;99.90
59025;DHT22;44806;48.008;13.666;2023-01-24T02:49:31;2.40;99.90
59025;DHT22;44806;48.008;13.666;2023-01-24T02:52:03;2.40;99.90
59025;DHT22;44806;48.008;13.666;2023-01-24T02:54:54;2.40;99.90
59025;DHT22;44806;48.008;13.666;2023-01-24T02:57:25;2.40;99.90
59025;DHT22;44806;48.008;13.666;2023-01-24T03:00:13;2.40;99.90
59025;DHT22;44806;48.008;13.666;2023-01-24T03:02:50;2.30;99.90
59025;DHT22;44806;48.008;13.666;2023-01-24T03:05:27;2.40;99.90
59025;DHT22;44806;48.008;13.666;2023-01-24T03:08:08;2.40;99.90
59025;DHT22;44806;48.008;13.666;2023-01-24T03:10:40;2.40;99.90
59025;DHT22;44806;48.008;13.666;2023-01-24T03:13:17;2.40;99.90
59025;DHT22;44806;48.008;13.666;2023-01-24T03:16:05;2.40;99.90
59025;DHT22;44806;48.008;13.666;2023-01-24T03:18:58;2.40;99.90
59025;DHT22;44806;48.008;13.666;2023-01-24T03:21:44;2.50;99.90
59025;DHT22;44806;48.008;13.666;2023-01-24T03:24:33;2.40;99.90
59025;DHT22;44806;48.008;13.666;2023-01-24T03:27:21;2.40;99.90
59025;DHT22;44806;48.008;13.666;2023-01-24T03:30:11;2.40;99.90
59025;DHT22;44806;48.008;13.666;2023-01-24T03:33:00;2.40;99.90
59025;DHT22;44806;48.008;13.666;2023-01-24T03:35:50;2.40;99.90
59025;DHT22;44806;48.008;13.666;2023-01-24T03:38:27;2.40;99.90
59025;DHT22;44806;48.008;13.666;2023-01-24T03:41:24;2.50;99.90
59025;DHT22;44806;48.008;13.666;2023-01-24T03:43:58;2.50;99.90
59025;DHT22;44806;48.008;13.666;2023-01-24T03:46:32;2.40;99.90
59025;DHT22;44806;48.008;13.666;2023-01-24T03:49:12;2.40;99.90
59025;DHT22;44806;48.008;13.666;2023-01-24T03:51:42;2.40;99.90
59025;DHT22;44806;48.008;13.666;2023-01-24T03:54:33;2.30;99.90
59025;DHT22;44806;48.008;13.666;2023-01-24T03:57:08;2.40;99.90
59025;DHT22;44806;48.008;13.666;2023-01-24T03:59:42;2.40;99.90
59025;DHT22;44806;48.008;13.666;2023-01-24T04:02:21;2.40;99.90
59025;DHT22;44806;48.008;13.666;2023-01-24T04:05:05;2.40;99.90
59025;DHT22;44806;48.008;13.666;2023-01-24T04:07:54;2.40;99.90
59025;DHT22;44806;48.008;13.666;2023-01-24T04:10:31;2.40;99.90
59025;DHT22;44806;48.008;13.666;2023-01-24T04:13:04;2.40;99.90
59025;DHT22;44806;48.008;13.666;2023-01-24T04:15:40;2.40;99.90
59025;DHT22;44806;48.008;13.666;2023-01-24T04:18:14;2.40;99.90
59025;DHT22;44806;48.008;13.666;2023-01-24T04:21:00;2.40;99.90
59025;DHT22;44806;48.008;13.666;2023-01-24T04:23:34;2.40;99.90
59025;DHT22;44806;48.008;13.666;2023-01-24T04:26:19;2.40;99.90
59025;DHT22;44806;48.008;13.666;2023-01-24T04:28:50;2.30;99.90
59025;DHT22;44806;48.008;13.666;2023-01-24T04:31:24;2.30;99.90
59025;DHT22;44806;48.008;13.666;2023-01-24T04:33:58;2.30;99.90
59025;DHT22;44806;48.008;13.666;2023-01-24T04:36:38;2.30;99.90
59025;DHT22;44806;48.008;13.666;2023-01-24T04:39:18;2.40;99.90
59025;DHT22;44806;48.008;13.666;2023-01-24T04:41:50;2.40;99.90
59025;DHT22;44806;48.008;13.666;2023-01-24T04:44:25;2.30;99.90
59025;DHT22;44806;48.008;13.666;2023-01-24T04:47:02;2.40;99.90
59025;DHT22;44806;48.008;13.666;2023-01-24T04:49:49;2.30;99.90
59025;DHT22;44806;48.008;13.666;2023-01-24T04:52:24;2.30;99.90
59025;DHT22;44806;48.008;13.666;2023-01-24T04:54:58;2.30;99.90
59025;DHT22;44806;48.008;13.666;2023-01-24T04:57:30;2.30;99.90
59025;DHT22;44806;48.008;13.666;2023-01-24T05:00:05;2.40;99.90
59025;DHT22;44806;48.008;13.666;2023-01-24T05:02:37;2.40;99.90
59025;DHT22;44806;48.008;13.666;2023-01-24T05:05:14;2.50;99.90
59025;DHT22;44806;48.008;13.666;2023-01-24T05:07:44;2.50;99.90
59025;DHT22;44806;48.008;13.666;2023-01-24T05:10:19;2.50;99.90
59025;DHT22;44806;48.008;13.666;2023-01-24T05:12:53;2.50;99.90
59025;DHT22;44806;48.008;13.666;2023-01-24T05:15:31;2.50;99.90
59025;DHT22;44806;48.008;13.666;2023-01-24T05:18:06;2.50;99.90
59025;DHT22;44806;48.008;13.666;2023-01-24T05:20:36;2.60;99.90
59025;DHT22;44806;48.008;13.666;2023-01-24T05:23:11;2.60;99.90
59025;DHT22;44806;48.008;13.666;2023-01-24T05:25:46;2.60;99.90
59025;DHT22;44806;48.008;13.666;2023-01-24T05:28:24;2.60;99.90
59025;DHT22;44806;48.008;13.666;2023-01-24T05:30:58;2.60;99.90
59025;DHT22;44806;48.008;13.666;2023-01-24T05:33:30;2.60;99.90
59025;DHT22;44806;48.008;13.666;2023-01-24T05:36:03;2.60;99.90
59025;DHT22;44806;48.008;13.666;2023-01-24T05:38:35;2.60;99.90
59025;DHT22;44806;48.008;13.666;2023-01-24T05:41:11;2.70;99.90
59025;DHT22;44806;48.008;13.666;2023-01-24T05:43:48;2.70;99.90
59025;DHT22;44806;48.008;13.666;2023-01-24T05:46:23;2.70;99.90
59025;DHT22;44806;48.008;13.666;2023-01-24T05:48:58;2.60;99.90
59025;DHT22;44806;48.008;13.666;2023-01-24T05:51:32;2.60;99.90
59025;DHT22;44806;48.008;13.666;2023-01-24T05:54:03;2.60;99.90
59025;DHT22;44806;48.008;13.666;2023-01-24T05:56:40;2.60;99.90
59025;DHT22;44806;48.008;13.666;2023-01-24T05:59:17;2.60;99.90
59025;DHT22;44806;48.008;13.666;2023-01-24T06:01:56;2.60;99.90
59025;DHT22;44806;48.008;13.666;2023-01-24T06:04:30;2.60;99.90
59025;DHT22;44806;48.008;13.666;2023-01-24T06:07:03;2.60;99.90
59025;DHT22;44806;48.008;13.666;2023-01-24T06:09:37;2.50;99.90
59025;DHT22;44806;48.008;13.666;2023-01-24T06:12:11;2.50;99.90
59025;DHT22;44806;48.008;13.666;2023-01-24T06:14:46;2.50;99.90
59025;DHT22;44806;48.008;13.666;2023-01-24T06:17:20;2.40;99.90
59025;DHT22;44806;48.008;13.666;2023-01-24T06:19:58;2.50;99.90
59025;DHT22;44806;48.008;13.666;2023-01-24T06:22:36;2.50;99.90
59025;DHT22;44806;48.008;13.666;2023-01-24T06:25:31;2.40;99.90
59025;DHT22;44806;48.008;13.666;2023-01-24T06:28:06;2.40;99.90
59025;DHT22;44806;48.008;13.666;2023-01-24T06:30:38;2.40;99.90
59025;DHT22;44806;48.008;13.666;2023-01-24T06:33:27;2.40;99.90
59025;DHT22;44806;48.008;13.666;2023-01-24T06:36:15;2.40;99.90
59025;DHT22;44806;48.008;13.666;2023-01-24T06:38:53;2.40;99.90
59025;DHT22;44806;48.008;13.666;2023-01-24T06:41:37;2.40;99.90
59025;DHT22;44806;48.008;13.666;2023-01-24T06:44:09;2.50;99.90
59025;DHT22;44806;48.008;13.666;2023-01-24T06:46:47;2.40;99.90
59025;DHT22;44806;48.008;13.666;2023-01-24T06:49:21;2.40;99.90
59025;DHT22;44806;48.008;13.666;2023-01-24T06:51:53;2.40;99.90
59025;DHT22;44806;48.008;13.666;2023-01-24T06:54:28;2.40;99.90
59025;DHT22;44806;48.008;13.666;2023-01-24T06:57:06;2.40;99.90
59025;DHT22;44806;48.008;13.666;2023-01-24T06:59:37;2.40;99.90
59025;DHT22;44806;48.008;13.666;2023-01-24T07:02:16;2.40;99.90
59025;DHT22;44806;48.008;13.666;2023-01-24T07:04:52;2.40;99.90
59025;DHT22;44806;48.008;13.666;2023-01-24T07:07:30;2.40;99.90
59025;DHT22;44806;48.008;13.666;2023-01-24T07:10:09;2.40;99.90
59025;DHT22;44806;48.008;13.666;2023-01-24T07:12:41;2.40;99.90
59025;DHT22;44806;48.008;13.666;2023-01-24T07:15:16;2.40;99.90
59025;DHT22;44806;48.008;13.666;2023-01-24T07:17:47;2.40;99.90
59025;DHT22;44806;48.008;13.666;2023-01-24T07:20:20;2.50;99.90
59025;DHT22;44806;48.008;13.666;2023-01-24T07:22:52;2.50;99.90
59025;DHT22;44806;48.008;13.666;2023-01-24T07:25:22;2.50;99.90
59025;DHT22;44806;48.008;13.666;2023-01-24T07:27:53;2.50;99.90
59025;DHT22;44806;48.008;13.666;2023-01-24T07:30:27;2.50;99.90
59025;DHT22;44806;48.008;13.666;2023-01-24T07:33:00;2.60;99.90
59025;DHT22;44806;48.008;13.666;2023-01-24T07:35:31;2.60;99.90
59025;DHT22;44806;48.008;13.666;2023-01-24T07:38:05;2.70;99.90
59025;DHT22;44806;48.008;13.666;2023-01-24T07:40:37;2.60;99.90
59025;DHT22;44806;48.008;13.666;2023-01-24T07:43:09;2.50;99.90
59025;DHT22;44806;48.008;13.666;2023-01-24T07:45:38;2.60;99.90
59025;DHT22;44806;48.008;13.666;2023-01-24T07:48:13;2.60;99.90
59025;DHT22;44806;48.008;13.666;2023-01-24T07:50:44;2.60;99.90
59025;DHT22;44806;48.008;13.666;2023-01-24T07:53:13;2.60;99.90
59025;DHT22;44806;48.008;13.666;2023-01-24T07:55:50;2.70;99.90
59025;DHT22;44806;48.008;13.666;2023-01-24T07:58:31;2.60;99.90
59025;DHT22;44806;48.008;13.666;2023-01-24T08:01:10;2.60;99.90
59025;DHT22;44806;48.008;13.666;2023-01-24T08:03:54;2.60;99.90
59025;DHT22;44806;48.008;13.666;2023-01-24T08:06:26;2.60;99.90
59025;DHT22;44806;48.008;13.666;2023-01-24T08:08:57;2.70;99.90
59025;DHT22;44806;48.008;13.666;2023-01-24T08:11:31;2.80;99.90
59025;DHT22;44806;48.008;13.666;2023-01-24T08:14:08;2.70;99.90
59025;DHT22;44806;48.008;13.666;2023-01-24T08:16:40;2.70;99.90
59025;DHT22;44806;48.008;13.666;2023-01-24T08:19:11;2.70;99.90
59025;DHT22;44806;48.008;13.666;2023-01-24T08:21:54;2.70;99.90
59025;DHT22;44806;48.008;13.666;2023-01-24T08:24:24;2.80;99.90
59025;DHT22;44806;48.008;13.666;2023-01-24T08:26:53;2.70;99.90
59025;DHT22;44806;48.008;13.666;2023-01-24T08:29:28;2.80;99.90
59025;DHT22;44806;48.008;13.666;2023-01-24T08:32:03;2.80;99.90
59025;DHT22;44806;48.008;13.666;2023-01-24T08:34:31;2.90;99.90
59025;DHT22;44806;48.008;13.666;2023-01-24T08:37:00;2.80;99.90
59025;DHT22;44806;48.008;13.666;2023-01-24T08:39:35;2.90;99.90
59025;DHT22;44806;48.008;13.666;2023-01-24T08:42:05;2.90;99.90
59025;DHT22;44806;48.008;13.666;2023-01-24T08:44:34;2.90;99.90
59025;DHT22;44806;48.008;13.666;2023-01-24T08:47:08;2.90;99.90
59025;DHT22;44806;48.008;13.666;2023-01-24T08:49:45;2.90;99.90
59025;DHT22;44806;48.008;13.666;2023-01-24T08:52:26;2.80;99.90
59025;DHT22;44806;48.008;13.666;2023-01-24T08:55:06;2.80;99.90
59025;DHT22;44806;48.008;13.666;2023-01-24T08:57:42;2.80;99.90
59025;DHT22;44806;48.008;13.666;2023-01-24T09:00:21;2.80;99.90
59025;DHT22;44806;48.008;13.666;2023-01-24T09:02:51;2.90;99.90
59025;DHT22;44806;48.008;13.666;2023-01-24T09:05:28;2.90;99.90
59025;DHT22;44806;48.008;13.666;2023-01-24T09:07:59;2.90;99.90
59025;DHT22;44806;48.008;13.666;2023-01-24T09:10:30;3.00;99.90
59025;DHT22;44806;48.008;13.666;2023-01-24T09:13:07;3.00;99.90
59025;DHT22;44806;48.008;13.666;2023-01-24T09:15:37;3.00;99.90
59025;DHT22;44806;48.008;13.666;2023-01-24T09:18:12;3.10;99.90
59025;DHT22;44806;48.008;13.666;2023-01-24T09:20:42;3.10;99.90
59025;DHT22;44806;48.008;13.666;2023-01-24T09:23:13;3.20;99.90
59025;DHT22;44806;48.008;13.666;2023-01-24T09:25:53;3.20;99.90
59025;DHT22;44806;48.008;13.666;2023-01-24T09:28:22;3.20;99.90
59025;DHT22;44806;48.008;13.666;2023-01-24T09:30:55;3.30;99.90
59025;DHT22;44806;48.008;13.666;2023-01-24T09:33:28;3.30;99.90
59025;DHT22;44806;48.008;13.666;2023-01-24T09:36:04;3.40;99.90
59025;DHT22;44806;48.008;13.666;2023-01-24T09:38:35;3.40;99.90
59025;DHT22;44806;48.008;13.666;2023-01-24T09:41:16;3.40;99.90
59025;DHT22;44806;48.008;13.666;2023-01-24T09:43:52;3.40;99.90
59025;DHT22;44806;48.008;13.666;2023-01-24T09:46:37;3.40;99.90
59025;DHT22;44806;48.008;13.666;2023-01-24T09:49:27;3.50;99.90
59025;DHT22;44806;48.008;13.666;2023-01-24T09:52:13;3.40;99.90
59025;DHT22;44806;48.008;13.666;2023-01-24T09:55:00;3.40;99.90
59025;DHT22;44806;48.008;13.666;2023-01-24T09:57:48;3.40;99.90
59025;DHT22;44806;48.008;13.666;2023-01-24T10:00:29;3.50;99.90
59025;DHT22;44806;48.008;13.666;2023-01-24T10:03:00;3.50;99.90
59025;DHT22;44806;48.008;13.666;2023-01-24T10:05:37;3.50;99.90
59025;DHT22;44806;48.008;13.666;2023-01-24T10:08:18;3.50;99.90
59025;DHT22;44806;48.008;13.666;2023-01-24T10:11:01;3.60;99.90
59025;DHT22;44806;48.008;13.666;2023-01-24T10:13:52;3.60;99.90
59025;DHT22;44806;48.008;13.666;2023-01-24T10:19:45;3.60;99.90
59025;DHT22;44806;48.008;13.666;2023-01-24T10:22:30;3.60;99.90
59025;DHT22;44806;48.008;13.666;2023-01-24T10:25:16;3.60;99.90
59025;DHT22;44806;48.008;13.666;2023-01-24T10:27:56;3.50;99.90
59025;DHT22;44806;48.008;13.666;2023-01-24T10:30:34;3.50;99.90
59025;DHT22;44806;48.008;13.666;2023-01-24T10:33:16;3.60;99.90
59025;DHT22;44806;48.008;13.666;2023-01-24T10:36:08;3.50;99.90
59025;DHT22;44806;48.008;13.666;2023-01-24T10:38:45;3.50;99.90
59025;DHT22;44806;48.008;13.666;2023-01-24T10:41:24;3.50;99.90
59025;DHT22;44806;48.008;13.666;2023-01-24T10:44:02;3.50;99.90
59025;DHT22;44806;48.008;13.666;2023-01-24T10:49:43;3.50;99.90
59025;DHT22;44806;48.008;13.666;2023-01-24T10:52:18;3.50;99.90
59025;DHT22;44806;48.008;13.666;2023-01-24T10:54:54;3.60;99.90
59025;DHT22;44806;48.008;13.666;2023-01-24T10:57:47;3.70;99.90
59025;DHT22;44806;48.008;13.666;2023-01-24T11:00:27;3.70;99.90
59025;DHT22;44806;48.008;13.666;2023-01-24T11:03:18;3.70;99.90
59025;DHT22;44806;48.008;13.666;2023-01-24T11:06:01;3.70;99.90
59025;DHT22;44806;48.008;13.666;2023-01-24T11:08:45;3.60;99.90
59025;DHT22;44806;48.008;13.666;2023-01-24T11:11:25;3.60;99.90
59025;DHT22;44806;48.008;13.666;2023-01-24T11:14:04;3.60;99.90
59025;DHT22;44806;48.008;13.666;2023-01-24T11:16:53;3.50;99.90
59025;DHT22;44806;48.008;13.666;2023-01-24T11:19:34;3.50;99.90
59025;DHT22;44806;48.008;13.666;2023-01-24T11:22:21;3.50;99.90
59025;DHT22;44806;48.008;13.666;2023-01-24T11:25:03;3.50;99.90
59025;DHT22;44806;48.008;13.666;2023-01-24T11:27:47;3.50;99.90
59025;DHT22;44806;48.008;13.666;2023-01-24T11:30:23;3.50;99.90
59025;DHT22;44806;48.008;13.666;2023-01-24T11:33:13;3.40;99.90
59025;DHT22;44806;48.008;13.666;2023-01-24T11:35:56;3.40;99.90
59025;DHT22;44806;48.008;13.666;2023-01-24T11:38:32;3.30;99.90
59025;DHT22;44806;48.008;13.666;2023-01-24T11:41:10;3.30;99.90
59025;DHT22;44806;48.008;13.666;2023-01-24T11:44:05;3.30;99.90
59025;DHT22;44806;48.008;13.666;2023-01-24T11:46:51;3.20;99.90
59025;DHT22;44806;48.008;13.666;2023-01-24T11:52:55;3.10;99.90
59025;DHT22;44806;48.008;13.666;2023-01-24T11:55:44;3.10;99.90
59025;DHT22;44806;48.008;13.666;2023-01-24T12:01:43;3.20;99.90
59025;DHT22;44806;48.008;13.666;2023-01-24T12:04:42;3.30;99.90
59025;DHT22;44806;48.008;13.666;2023-01-24T12:07:25;3.20;99.90
59025;DHT22;44806;48.008;13.666;2023-01-24T12:10:05;3.30;99.90
59025;DHT22;44806;48.008;13.666;2023-01-24T12:12:55;3.30;99.90
59025;DHT22;44806;48.008;13.666;2023-01-24T12:15:38;3.20;99.90
59025;DHT22;44806;48.008;13.666;2023-01-24T12:18:38;3.20;99.90
59025;DHT22;44806;48.008;13.666;2023-01-24T12:21:17;3.20;99.90
59025;DHT22;44806;48.008;13.666;2023-01-24T12:23:51;3.30;99.90
59025;DHT22;44806;48.008;13.666;2023-01-24T12:26:29;3.30;99.90
59025;DHT22;44806;48.008;13.666;2023-01-24T12:29:03;3.30;99.90
59025;DHT22;44806;48.008;13.666;2023-01-24T12:31:56;3.30;99.90
59025;DHT22;44806;48.008;13.666;2023-01-24T12:34:43;3.20;99.90
59025;DHT22;44806;48.008;13.666;2023-01-24T12:37:28;3.20;99.90
59025;DHT22;44806;48.008;13.666;2023-01-24T12:40:07;3.20;99.90
59025;DHT22;44806;48.008;13.666;2023-01-24T12:42:52;3.30;99.90
59025;DHT22;44806;48.008;13.666;2023-01-24T12:45:37;3.40;99.90
59025;DHT22;44806;48.008;13.666;2023-01-24T12:48:24;3.30;99.90
59025;DHT22;44806;48.008;13.666;2023-01-24T12:51:07;3.40;99.90
59025;DHT22;44806;48.008;13.666;2023-01-24T12:53:57;3.40;99.90
59025;DHT22;44806;48.008;13.666;2023-01-24T12:56:38;3.40;99.90
59025;DHT22;44806;48.008;13.666;2023-01-24T12:59:22;3.40;99.90
59025;DHT22;44806;48.008;13.666;2023-01-24T13:05:11;3.40;99.90
59025;DHT22;44806;48.008;13.666;2023-01-24T13:08:04;3.30;99.90
59025;DHT22;44806;48.008;13.666;2023-01-24T13:10:48;3.30;99.90
59025;DHT22;44806;48.008;13.666;2023-01-24T13:13:28;3.30;99.90
59025;DHT22;44806;48.008;13.666;2023-01-24T13:16:26;3.20;99.90
59025;DHT22;44806;48.008;13.666;2023-01-24T13:19:03;3.10;99.90
59025;DHT22;44806;48.008;13.666;2023-01-24T13:21:48;3.20;99.90
59025;DHT22;44806;48.008;13.666;2023-01-24T13:24:40;3.10;99.90
59025;DHT22;44806;48.008;13.666;2023-01-24T13:27:37;3.20;99.90
59025;DHT22;44806;48.008;13.666;2023-01-24T13:30:22;3.10;99.90
59025;DHT22;44806;48.008;13.666;2023-01-24T13:33:00;3.20;99.90
59025;DHT22;44806;48.008;13.666;2023-01-24T13:35:33;3.20;99.90
59025;DHT22;44806;48.008;13.666;2023-01-24T13:38:21;3.20;99.90
59025;DHT22;44806;48.008;13.666;2023-01-24T13:40:58;3.10;99.90
59025;DHT22;44806;48.008;13.666;2023-01-24T13:43:56;3.20;99.90
59025;DHT22;44806;48.008;13.666;2023-01-24T13:49:38;3.30;99.90
59025;DHT22;44806;48.008;13.666;2023-01-24T13:52:45;3.20;99.90
59025;DHT22;44806;48.008;13.666;2023-01-24T13:58:24;3.40;99.90
59025;DHT22;44806;48.008;13.666;2023-01-24T14:01:04;3.40;99.90
59025;DHT22;44806;48.008;13.666;2023-01-24T14:04:02;3.30;99.90
59025;DHT22;44806;48.008;13.666;2023-01-24T14:06:43;3.30;99.90
59025;DHT22;44806;48.008;13.666;2023-01-24T14:09:30;3.40;99.90
59025;DHT22;44806;48.008;13.666;2023-01-24T14:12:18;3.40;99.90
59025;DHT22;44806;48.008;13.666;2023-01-24T14:18:03;3.30;99.90
59025;DHT22;44806;48.008;13.666;2023-01-24T14:20:38;3.30;99.90
59025;DHT22;44806;48.008;13.666;2023-01-24T14:23:30;3.30;99.90
59025;DHT22;44806;48.008;13.666;2023-01-24T14:26:05;3.40;99.90
59025;DHT22;44806;48.008;13.666;2023-01-24T14:28:44;3.40;99.90
59025;DHT22;44806;48.008;13.666;2023-01-24T14:31:24;3.50;99.90
59025;DHT22;44806;48.008;13.666;2023-01-24T14:34:04;3.40;99.90
59025;DHT22;44806;48.008;13.666;2023-01-24T14:36:40;3.40;99.90
59025;DHT22;44806;48.008;13.666;2023-01-24T14:39:30;3.40;99.90
59025;DHT22;44806;48.008;13.666;2023-01-24T14:42:02;3.30;99.90
59025;DHT22;44806;48.008;13.666;2023-01-24T14:44:41;3.20;99.90
59025;DHT22;44806;48.008;13.666;2023-01-24T14:47:23;3.20;99.90
59025;DHT22;44806;48.008;13.666;2023-01-24T14:50:00;3.20;99.90
59025;DHT22;44806;48.008;13.666;2023-01-24T14:52:33;3.30;99.90
59025;DHT22;44806;48.008;13.666;2023-01-24T14:55:32;3.20;99.90
59025;DHT22;44806;48.008;13.666;2023-01-24T14:58:24;3.10;99.90
59025;DHT22;44806;48.008;13.666;2023-01-24T15:01:01;3.30;99.90
59025;DHT22;44806;48.008;13.666;2023-01-24T15:03:32;3.20;99.90
59025;DHT22;44806;48.008;13.666;2023-01-24T15:06:15;3.30;99.90
59025;DHT22;44806;48.008;13.666;2023-01-24T15:09:05;3.30;99.90
59025;DHT22;44806;48.008;13.666;2023-01-24T15:11:45;3.20;99.90
59025;DHT22;44806;48.008;13.666;2023-01-24T15:14:20;3.30;99.90
59025;DHT22;44806;48.008;13.666;2023-01-24T15:16:54;3.20;99.90
59025;DHT22;44806;48.008;13.666;2023-01-24T15:19:35;3.30;99.90
59025;DHT22;44806;48.008;13.666;2023-01-24T15:22:22;3.30;99.90
59025;DHT22;44806;48.008;13.666;2023-01-24T15:24:58;3.30;99.90
59025;DHT22;44806;48.008;13.666;2023-01-24T15:27:41;3.30;99.90
59025;DHT22;44806;48.008;13.666;2023-01-24T15:30:23;3.20;99.90
59025;DHT22;44806;48.008;13.666;2023-01-24T15:33:01;3.20;99.90
59025;DHT22;44806;48.008;13.666;2023-01-24T15:35:40;3.30;99.90
59025;DHT22;44806;48.008;13.666;2023-01-24T15:38:30;3.20;99.90
59025;DHT22;44806;48.008;13.666;2023-01-24T15:41:19;3.30;99.90
59025;DHT22;44806;48.008;13.666;2023-01-24T15:44:06;3.20;99.90
59025;DHT22;44806;48.008;13.666;2023-01-24T15:46:43;3.30;99.90
59025;DHT22;44806;48.008;13.666;2023-01-24T15:49:33;3.30;99.90
59025;DHT22;44806;48.008;13.666;2023-01-24T15:52:27;3.20;99.90
59025;DHT22;44806;48.008;13.666;2023-01-24T15:55:02;3.10;99.90
59025;DHT22;44806;48.008;13.666;2023-01-24T15:57:41;3.00;99.90
59025;DHT22;44806;48.008;13.666;2023-01-24T16:00:26;3.00;99.90
59025;DHT22;44806;48.008;13.666;2023-01-24T16:02:57;3.10;99.90
59025;DHT22;44806;48.008;13.666;2023-01-24T16:05:28;3.10;99.90
59025;DHT22;44806;48.008;13.666;2023-01-24T16:07:58;3.10;99.90
59025;DHT22;44806;48.008;13.666;2023-01-24T16:10:31;3.10;99.90
59025;DHT22;44806;48.008;13.666;2023-01-24T16:13:18;3.00;99.90
59025;DHT22;44806;48.008;13.666;2023-01-24T16:16:01;3.00;99.90
59025;DHT22;44806;48.008;13.666;2023-01-24T16:18:34;2.90;99.90
59025;DHT22;44806;48.008;13.666;2023-01-24T16:21:11;3.00;99.90
59025;DHT22;44806;48.008;13.666;2023-01-24T16:23:50;3.00;99.90
59025;DHT22;44806;48.008;13.666;2023-01-24T16:26:29;3.00;99.90
59025;DHT22;44806;48.008;13.666;2023-01-24T16:29:14;2.90;99.90
59025;DHT22;44806;48.008;13.666;2023-01-24T16:31:49;2.90;99.90
59025;DHT22;44806;48.008;13.666;2023-01-24T16:34:28;2.90;99.90
59025;DHT22;44806;48.008;13.666;2023-01-24T16:37:02;2.90;99.90
59025;DHT22;44806;48.008;13.666;2023-01-24T16:39:35;2.90;99.90
59025;DHT22;44806;48.008;13.666;2023-01-24T16:42:11;2.90;99.90
59025;DHT22;44806;48.008;13.666;2023-01-24T16:44:58;2.90;99.90
59025;DHT22;44806;48.008;13.666;2023-01-24T16:47:33;2.80;99.90
59025;DHT22;44806;48.008;13.666;2023-01-24T16:50:04;2.80;99.90
59025;DHT22;44806;48.008;13.666;2023-01-24T16:52:38;2.90;99.90
59025;DHT22;44806;48.008;13.666;2023-01-24T16:55:16;2.90;99.90
59025;DHT22;44806;48.008;13.666;2023-01-24T16:57:49;2.90;99.90
59025;DHT22;44806;48.008;13.666;2023-01-24T17:00:21;2.80;99.90
59025;DHT22;44806;48.008;13.666;2023-01-24T17:02:50;2.90;99.90
59025;DHT22;44806;48.008;13.666;2023-01-24T17:05:23;2.90;99.90
59025;DHT22;44806;48.008;13.666;2023-01-24T17:07:57;2.90;99.90